KG-0043 weather

Ak Bashat Airport
Ak Bashat village, Chuy Region, Kyrgyzstan

Public forecast

Using degrees Celsius for public forecast. Weather courtesy of forecast.io.

Closest aviation weather report (METAR) to Ak Bashat Airport

Closest report is Manas International Airport, 26.2 nm (48.5 km) ENE. Retrieved 2020/01/29 07:30 UTC (9 minutes ago):

UCFM 290730Z 03002MPS 360V080 5000 BR FU NSC M02/M07 Q1026 R08/0///95 NOSIG

Closest aviation forecast (TAF) to Ak Bashat Airport

Closest forecast is Manas International Airport, 26.2 nm (48.5 km) ENE. Retrieved 2020/01/29 06:00 UTC (2 hours ago):

TAF UCFM 290455Z 2906/3006 30003G08MPS 5000 BR SCT050 TEMPO 2906/2910 1500 BR FU FEW003 TEMPO 2910/2916 VRB01MPS 0300 FZFG BKN002 FM291600 12003G08MPS 1500 BR FU BKN005 TEMPO 2916/2922 0300 FZFG VV002 TEMPO 2922/3006 0300 FZFG VV002